Main page
Satellite images 10-day forecastsClimateMarine weather Cyclones Lightning AirportsFAQ Newsletter About
Weather : Europe Africa North America South America Asia Australia-Oceania Others
Languages Contact

Gloucester, England

Gloucestershire Airport

latitude: 51-54N, longitude: 002-10W, elevation: 29 m


METAR: EGBJ 281420Z 23010KT 190V260 9999 FEW040 20/10 Q1016
TAF: EGBJ 281359Z 2815/2819 24010KT 9999 SCT040 PROB30 TEMPO 2815/2818 25015G25KT 7000 SHRA

Time: 15:42 (14:42 UTC)

Current weather observation

The report was made 22 minutes ago, at 14:20 UTC
Wind 10 kt from the Southwest, varying between South and West
Temperature 20°C
Humidity 53%
Pressure 1016 hPa
Visibility 10 km or more
Few clouds at a height of 4000 ft

Change units

Forecast

The report was made 43 minutes ago, at 13:59 UTC
Forecast valid from 28 at 15 UTC to 28 at 19 UTC
Wind 10 kt from the West/Southwest
Visibility 10 km or more
Scattered clouds at a height of 4000 ft
Probability 30% :
Temporary
from 28 at 15 UTC to 28 at 18 UTC
Wind 15 kt from the West/Southwest with gusts up to 25 kt
Visibility: 7000 m
rain showers
The information on this site is subject to a disclaimer
Weather : Europe Africa North America South America Asia Australia-Oceania Others
Satellite images 10-day forecastsClimateMarine weather Cyclones Lightning AirportsFAQ Languages Contact Newsletter About